Adolph, Minnesota
Current Conditions -  °F | °C
As of 2:55 PM on Tuesday 27 Jan 2015 (Local Time) from KDLH Reporting Station
Overcast Overcast  
Wind Chill: -7°   Ceiling: 1400
Heat Index: -2°   Visibility: 10mi
Dew Point: -6°   Wind: 8mph
Humidity: 75%   Direction: 190°S
Pressure: 30.1"   Gusts: NA
Location:  46.78°N, 92.28°W
Report Text: KDLH 272055Z 19007KT 10SM OVC014 M02/M06 A3010 RMK AO2 SLP217 T10221061 55002
Loading
Personal Weather Stations






























Interactive Weather Map New forecast layout! Learn more

10-Day Weather Forecast

Advertisements
Track Severe Weather on mobile